createdAt,value
2023-04-27T00:00:56.728Z,1012.42
2023-04-27T00:01:56.750Z,1012.43
2023-04-27T00:02:57.076Z,1012.42
2023-04-27T00:03:56.796Z,1012.40
2023-04-27T00:04:56.910Z,1012.43
2023-04-27T00:05:56.916Z,1012.43
2023-04-27T00:06:56.673Z,1012.44
2023-04-27T00:07:56.657Z,1012.48
2023-04-27T00:08:56.649Z,1012.43
2023-04-27T00:09:56.650Z,1012.47
2023-04-27T00:10:56.629Z,1012.48
2023-04-27T00:11:56.606Z,1012.50
2023-04-27T00:12:56.638Z,1012.48
2023-04-27T00:13:56.611Z,1012.48
2023-04-27T00:14:56.625Z,1012.55
2023-04-27T00:15:56.617Z,1012.53
2023-04-27T00:16:56.583Z,1012.50
2023-04-27T00:17:56.571Z,1012.52
2023-04-27T00:18:56.595Z,1012.48
2023-04-27T00:19:56.537Z,1012.50
2023-04-27T00:20:56.608Z,1012.51
2023-04-27T00:21:56.500Z,1012.48
2023-04-27T00:22:56.501Z,1012.45
2023-04-27T00:23:56.502Z,1012.49
2023-04-27T00:24:56.641Z,1012.50
2023-04-27T00:25:56.463Z,1012.47
2023-04-27T00:26:56.466Z,1012.48
2023-04-27T00:27:56.441Z,1012.50
2023-04-27T00:28:56.434Z,1012.52
2023-04-27T00:29:56.525Z,1012.50
2023-04-27T00:30:56.419Z,1012.53
2023-04-27T00:31:56.445Z,1012.48
2023-04-27T00:32:56.444Z,1012.54
2023-04-27T00:33:56.370Z,1012.55
2023-04-27T00:34:56.387Z,1012.53
2023-04-27T00:35:56.372Z,1012.55
2023-04-27T00:36:56.346Z,1012.52
2023-04-27T00:37:56.349Z,1012.53
2023-04-27T00:38:56.341Z,1012.57
2023-04-27T00:39:56.329Z,1012.59
2023-04-27T00:40:56.301Z,1012.58
2023-04-27T00:41:56.310Z,1012.59
2023-04-27T00:42:56.292Z,1012.56
2023-04-27T00:43:56.272Z,1012.56
2023-04-27T00:44:56.270Z,1012.56
2023-04-27T00:45:56.286Z,1012.56
2023-04-27T00:46:56.266Z,1012.61
2023-04-27T00:47:56.301Z,1012.65
2023-04-27T00:48:56.234Z,1012.63
2023-04-27T00:49:56.225Z,1012.59
2023-04-27T00:50:56.283Z,1012.56
2023-04-27T00:51:56.182Z,1012.61
2023-04-27T00:52:56.188Z,1012.61
2023-04-27T00:53:56.185Z,1012.58
2023-04-27T00:54:56.174Z,1012.55
2023-04-27T00:55:56.144Z,1012.56
2023-04-27T00:56:56.140Z,1012.60
2023-04-27T00:57:56.133Z,1012.62
2023-04-27T00:58:56.159Z,1012.59
2023-04-27T00:59:56.124Z,1012.58
2023-04-27T01:00:56.131Z,1012.62
2023-04-27T01:01:56.106Z,1012.59
2023-04-27T01:02:56.215Z,1012.60
2023-04-27T01:03:56.235Z,1012.62
2023-04-27T01:04:56.076Z,1012.60
2023-04-27T01:05:56.035Z,1012.64
2023-04-27T01:06:56.017Z,1012.62
2023-04-27T01:07:56.057Z,1012.61
2023-04-27T01:08:56.002Z,1012.61
2023-04-27T01:09:56.006Z,1012.52
2023-04-27T01:10:56.017Z,1012.57
2023-04-27T01:11:55.983Z,1012.60
2023-04-27T01:12:55.969Z,1012.58
2023-04-27T01:13:55.968Z,1012.59
2023-04-27T01:14:55.962Z,1012.57
2023-04-27T01:15:55.925Z,1012.55
2023-04-27T01:16:55.981Z,1012.54
2023-04-27T01:17:55.958Z,1012.51
2023-04-27T01:18:55.908Z,1012.55
2023-04-27T01:19:55.910Z,1012.56
2023-04-27T01:20:55.887Z,1012.55
2023-04-27T01:21:55.864Z,1012.57
2023-04-27T01:22:55.859Z,1012.57
2023-04-27T01:23:55.858Z,1012.57
2023-04-27T01:24:55.857Z,1012.55
2023-04-27T01:25:55.819Z,1012.57
2023-04-27T01:26:55.818Z,1012.57
2023-04-27T01:27:55.811Z,1012.60
2023-04-27T01:28:55.821Z,1012.60
2023-04-27T01:29:55.812Z,1012.60
2023-04-27T01:30:55.802Z,1012.62
2023-04-27T01:31:55.770Z,1012.63
2023-04-27T01:32:55.861Z,1012.61
2023-04-27T01:33:55.732Z,1012.63
2023-04-27T01:34:55.781Z,1012.65
2023-04-27T01:35:55.766Z,1012.62
2023-04-27T01:36:55.720Z,1012.61
2023-04-27T01:37:55.691Z,1012.62
2023-04-27T01:38:55.696Z,1012.65
2023-04-27T01:39:55.683Z,1012.65
2023-04-27T01:40:55.679Z,1012.68
2023-04-27T01:41:57.857Z,1012.64
2023-04-27T01:42:55.659Z,1012.62
2023-04-27T01:43:55.675Z,1012.58
2023-04-27T01:44:55.654Z,1012.58
2023-04-27T01:45:55.646Z,1012.59
2023-04-27T01:46:55.608Z,1012.58
2023-04-27T01:47:55.643Z,1012.56
2023-04-27T01:48:55.580Z,1012.56
2023-04-27T01:49:55.712Z,1012.54
2023-04-27T01:50:55.568Z,1012.60
2023-04-27T01:51:55.546Z,1012.58
2023-04-27T01:52:55.540Z,1012.61
2023-04-27T01:53:55.529Z,1012.65
2023-04-27T01:54:55.541Z,1012.66
2023-04-27T01:55:55.592Z,1012.65
2023-04-27T01:56:55.514Z,1012.69
2023-04-27T01:57:55.478Z,1012.68
2023-04-27T01:58:55.526Z,1012.69
2023-04-27T01:59:55.469Z,1012.68
2023-04-27T02:00:55.464Z,1012.68
2023-04-27T02:01:55.531Z,1012.68
2023-04-27T02:02:55.559Z,1012.63
2023-04-27T02:03:55.625Z,1012.66
2023-04-27T02:04:55.589Z,1012.70
2023-04-27T02:05:55.453Z,1012.67
2023-04-27T02:06:55.388Z,1012.70
2023-04-27T02:07:55.386Z,1012.68
2023-04-27T02:08:55.373Z,1012.65
2023-04-27T02:09:55.370Z,1012.66
2023-04-27T02:10:55.349Z,1012.64
2023-04-27T02:11:55.340Z,1012.62
2023-04-27T02:12:55.330Z,1012.67
2023-04-27T02:13:55.313Z,1012.63
2023-04-27T02:14:55.361Z,1012.65
2023-04-27T02:15:55.353Z,1012.64
2023-04-27T02:16:55.287Z,1012.68
2023-04-27T02:17:55.343Z,1012.65
2023-04-27T02:18:55.263Z,1012.66
2023-04-27T02:19:55.287Z,1012.70
2023-04-27T02:20:55.244Z,1012.74
2023-04-27T02:21:55.227Z,1012.73
2023-04-27T02:22:55.224Z,1012.74
2023-04-27T02:23:55.211Z,1012.73
2023-04-27T02:24:55.206Z,1012.68
2023-04-27T02:25:55.207Z,1012.67
2023-04-27T02:26:55.192Z,1012.72
2023-04-27T02:27:55.181Z,1012.67
2023-04-27T02:28:55.204Z,1012.70
2023-04-27T02:29:55.168Z,1012.71
2023-04-27T02:30:55.144Z,1012.71
2023-04-27T02:31:55.188Z,1012.73
2023-04-27T02:32:55.133Z,1012.70
2023-04-27T02:33:55.157Z,1012.73
2023-04-27T02:34:55.150Z,1012.68
2023-04-27T02:35:55.077Z,1012.72
2023-04-27T02:36:55.072Z,1012.70
2023-04-27T02:37:55.112Z,1012.69
2023-04-27T02:38:55.078Z,1012.72
2023-04-27T02:39:55.043Z,1012.73
2023-04-27T02:40:55.062Z,1012.75
2023-04-27T02:41:55.042Z,1012.73
2023-04-27T02:42:55.021Z,1012.75
2023-04-27T02:43:54.997Z,1012.76
2023-04-27T02:44:55.001Z,1012.79
2023-04-27T02:45:55.019Z,1012.80
2023-04-27T02:46:55.083Z,1012.78
2023-04-27T02:47:54.992Z,1012.72
2023-04-27T02:48:54.976Z,1012.71
2023-04-27T02:49:54.949Z,1012.73
2023-04-27T02:50:54.916Z,1012.70
2023-04-27T02:51:54.946Z,1012.69
2023-04-27T02:52:54.909Z,1012.69
2023-04-27T02:53:54.893Z,1012.70
2023-04-27T02:54:54.900Z,1012.64
2023-04-27T02:55:54.926Z,1012.66
2023-04-27T02:56:54.881Z,1012.65
2023-04-27T02:57:54.839Z,1012.65
2023-04-27T02:58:54.820Z,1012.64
2023-04-27T02:59:54.840Z,1012.66
2023-04-27T03:00:54.814Z,1012.66
2023-04-27T03:01:54.795Z,1012.61
2023-04-27T03:02:54.849Z,1012.61
2023-04-27T03:03:54.976Z,1012.61
2023-04-27T03:04:54.785Z,1012.59
2023-04-27T03:05:54.773Z,1012.58
2023-04-27T03:06:54.763Z,1012.56
2023-04-27T03:07:54.740Z,1012.50
2023-04-27T03:08:54.744Z,1012.53
2023-04-27T03:09:54.725Z,1012.48
2023-04-27T03:10:54.736Z,1012.51
2023-04-27T03:11:54.698Z,1012.49
2023-04-27T03:12:54.688Z,1012.55
2023-04-27T03:13:54.673Z,1012.55
2023-04-27T03:14:54.666Z,1012.56
2023-04-27T03:15:54.707Z,1012.49
2023-04-27T03:16:54.690Z,1012.56
2023-04-27T03:17:54.698Z,1012.54
2023-04-27T03:18:54.610Z,1012.57
2023-04-27T03:19:54.616Z,1012.56
2023-04-27T03:20:54.598Z,1012.55
2023-04-27T03:21:54.587Z,1012.58
2023-04-27T03:22:54.569Z,1012.59
2023-04-27T03:23:54.570Z,1012.62
2023-04-27T03:24:54.576Z,1012.63
2023-04-27T03:25:54.560Z,1012.68
2023-04-27T03:26:54.532Z,1012.68
2023-04-27T03:27:54.602Z,1012.69
2023-04-27T03:28:54.506Z,1012.67
2023-04-27T03:29:54.526Z,1012.65
2023-04-27T03:30:54.502Z,1012.66
2023-04-27T03:31:54.592Z,1012.64
2023-04-27T03:32:54.527Z,1012.69
2023-04-27T03:33:54.469Z,1012.67
2023-04-27T03:34:54.453Z,1012.64
2023-04-27T03:35:54.451Z,1012.66
2023-04-27T03:36:54.570Z,1012.67
2023-04-27T03:37:54.440Z,1012.65
2023-04-27T03:38:54.414Z,1012.62
2023-04-27T03:39:54.401Z,1012.66
2023-04-27T03:40:54.393Z,1012.66
2023-04-27T03:41:54.371Z,1012.61
2023-04-27T03:42:54.358Z,1012.67
2023-04-27T03:43:54.375Z,1012.71
2023-04-27T03:44:54.423Z,1012.70
2023-04-27T03:45:54.355Z,1012.69
2023-04-27T03:46:54.328Z,1012.69
2023-04-27T03:47:54.369Z,1012.71
2023-04-27T03:48:54.420Z,1012.68
2023-04-27T03:49:54.297Z,1012.67
2023-04-27T03:50:54.285Z,1012.65
2023-04-27T03:51:54.260Z,1012.65
2023-04-27T03:52:54.255Z,1012.64
2023-04-27T03:53:54.245Z,1012.63
2023-04-27T03:54:54.243Z,1012.67
2023-04-27T03:55:54.234Z,1012.68
2023-04-27T03:56:54.241Z,1012.67
2023-04-27T03:57:54.207Z,1012.72
2023-04-27T03:58:54.204Z,1012.73
2023-04-27T03:59:54.195Z,1012.76
2023-04-27T04:00:54.180Z,1012.74
2023-04-27T04:01:54.174Z,1012.77
2023-04-27T04:02:54.303Z,1012.80
2023-04-27T04:03:54.363Z,1012.79
2023-04-27T04:04:54.314Z,1012.79
2023-04-27T04:05:54.122Z,1012.82
2023-04-27T04:06:54.100Z,1012.82
2023-04-27T04:07:54.098Z,1012.82
2023-04-27T04:08:54.094Z,1012.84
2023-04-27T04:09:54.093Z,1012.85
2023-04-27T04:10:54.076Z,1012.87
2023-04-27T04:11:54.057Z,1012.87
2023-04-27T04:12:54.045Z,1012.85
2023-04-27T04:13:54.029Z,1012.88
2023-04-27T04:14:54.048Z,1012.89
2023-04-27T04:15:54.060Z,1012.90
2023-04-27T04:16:54.018Z,1012.89
2023-04-27T04:17:54.038Z,1012.89
2023-04-27T04:18:53.981Z,1012.91
2023-04-27T04:19:54.011Z,1012.89
2023-04-27T04:20:53.961Z,1012.88
2023-04-27T04:21:53.966Z,1012.89
2023-04-27T04:22:53.951Z,1012.91
2023-04-27T04:23:53.958Z,1012.92
2023-04-27T04:24:53.910Z,1012.93
2023-04-27T04:25:53.926Z,1012.95
2023-04-27T04:26:53.912Z,1012.97
2023-04-27T04:27:53.897Z,1012.99
2023-04-27T04:28:53.875Z,1012.95
2023-04-27T04:29:53.874Z,1013.00
2023-04-27T04:30:53.850Z,1012.99
2023-04-27T04:31:53.844Z,1012.98
2023-04-27T04:32:53.990Z,1012.97
2023-04-27T04:33:53.811Z,1012.99
2023-04-27T04:34:53.831Z,1012.93
2023-04-27T04:35:53.809Z,1012.97
2023-04-27T04:36:53.786Z,1013.00
2023-04-27T04:37:53.764Z,1012.98
2023-04-27T04:38:53.774Z,1013.00
2023-04-27T04:39:53.816Z,1013.03
2023-04-27T04:40:53.775Z,1013.01
2023-04-27T04:41:53.779Z,1013.00
2023-04-27T04:42:53.720Z,1013.03
2023-04-27T04:43:53.705Z,1013.02
2023-04-27T04:44:53.711Z,1013.03
2023-04-27T04:45:53.678Z,1013.07
2023-04-27T04:46:53.757Z,1013.06
2023-04-27T04:47:53.719Z,1013.08
2023-04-27T04:48:54.869Z,1013.02
2023-04-27T04:49:53.669Z,1013.06
2023-04-27T04:50:53.636Z,1013.09
2023-04-27T04:51:53.615Z,1013.11
2023-04-27T04:52:53.618Z,1013.12
2023-04-27T04:53:53.593Z,1013.11
2023-04-27T04:54:53.607Z,1013.11
2023-04-27T04:55:53.579Z,1013.14
2023-04-27T04:56:53.574Z,1013.13
2023-04-27T04:57:53.576Z,1013.11
2023-04-27T04:58:53.550Z,1013.10
2023-04-27T04:59:53.587Z,1013.07
2023-04-27T05:00:53.531Z,1013.13
2023-04-27T05:01:53.543Z,1013.10
2023-04-27T05:02:53.711Z,1013.14
2023-04-27T05:03:53.621Z,1013.18
2023-04-27T05:04:53.535Z,1013.17
2023-04-27T05:05:53.554Z,1013.19
2023-04-27T05:06:53.466Z,1013.18
2023-04-27T05:07:53.444Z,1013.18
2023-04-27T05:08:53.451Z,1013.21
2023-04-27T05:09:53.501Z,1013.21
2023-04-27T05:10:53.480Z,1013.22
2023-04-27T05:11:53.405Z,1013.19
2023-04-27T05:12:53.407Z,1013.20
2023-04-27T05:13:53.450Z,1013.21
2023-04-27T05:14:53.397Z,1013.23
2023-04-27T05:15:53.367Z,1013.20
2023-04-27T05:16:53.362Z,1013.18
2023-04-27T05:17:53.359Z,1013.21
2023-04-27T05:18:53.336Z,1013.21
2023-04-27T05:19:53.357Z,1013.20
2023-04-27T05:20:53.349Z,1013.23
2023-04-27T05:21:53.293Z,1013.22
2023-04-27T05:22:53.290Z,1013.21
2023-04-27T05:23:53.331Z,1013.24
2023-04-27T05:24:53.300Z,1013.26
2023-04-27T05:25:53.270Z,1013.29
2023-04-27T05:26:53.258Z,1013.32
2023-04-27T05:27:53.233Z,1013.32
2023-04-27T05:28:53.232Z,1013.33
2023-04-27T05:29:53.233Z,1013.37
2023-04-27T05:30:53.204Z,1013.30
2023-04-27T05:31:53.224Z,1013.38
2023-04-27T05:32:53.226Z,1013.39
2023-04-27T05:33:53.178Z,1013.37
2023-04-27T05:34:53.172Z,1013.39
2023-04-27T05:35:53.262Z,1013.43
2023-04-27T05:36:53.140Z,1013.43
2023-04-27T05:37:53.130Z,1013.40
2023-04-27T05:38:53.125Z,1013.42
2023-04-27T05:39:53.123Z,1013.44
2023-04-27T05:40:55.077Z,1013.45
2023-04-27T05:41:53.087Z,1013.44
2023-04-27T05:42:53.134Z,1013.44
2023-04-27T05:43:53.063Z,1013.46
2023-04-27T05:44:53.087Z,1013.48
2023-04-27T05:45:53.096Z,1013.49
2023-04-27T05:46:53.037Z,1013.50
2023-04-27T05:47:53.095Z,1013.54
2023-04-27T05:48:53.032Z,1013.50
2023-04-27T05:49:53.086Z,1013.49
2023-04-27T05:50:52.996Z,1013.50
2023-04-27T05:51:53.008Z,1013.52
2023-04-27T05:52:52.988Z,1013.53
2023-04-27T05:53:52.977Z,1013.51
2023-04-27T05:54:52.963Z,1013.52
2023-04-27T05:55:52.940Z,1013.54
2023-04-27T05:56:52.976Z,1013.57
2023-04-27T05:58:06.616Z,1013.58
2023-04-27T05:58:53.918Z,1013.55
2023-04-27T05:59:52.900Z,1013.57
2023-04-27T06:00:52.911Z,1013.59
2023-04-27T06:01:52.910Z,1013.62
2023-04-27T06:02:53.029Z,1013.61
2023-04-27T06:03:53.040Z,1013.56
2023-04-27T06:04:52.915Z,1013.52
2023-04-27T06:05:52.961Z,1013.54
2023-04-27T06:06:52.833Z,1013.53
2023-04-27T06:07:52.804Z,1013.51
2023-04-27T06:08:52.797Z,1013.49
2023-04-27T06:09:52.795Z,1013.53
2023-04-27T06:10:52.767Z,1013.46
2023-04-27T06:11:52.761Z,1013.47
2023-04-27T06:12:52.765Z,1013.45
2023-04-27T06:13:52.827Z,1013.50
2023-04-27T06:14:52.750Z,1013.53
2023-04-27T06:15:52.739Z,1013.49
2023-04-27T06:16:52.716Z,1013.56
2023-04-27T06:17:52.931Z,1013.58
2023-04-27T06:18:52.693Z,1013.55
2023-04-27T06:19:52.739Z,1013.60
2023-04-27T06:20:52.670Z,1013.58
2023-04-27T06:21:52.658Z,1013.56
2023-04-27T06:22:52.678Z,1013.51
2023-04-27T06:23:52.669Z,1013.56
2023-04-27T06:24:52.671Z,1013.57
2023-04-27T06:25:52.652Z,1013.55
2023-04-27T06:26:52.622Z,1013.55
2023-04-27T06:27:52.585Z,1013.57
2023-04-27T06:28:52.586Z,1013.55
2023-04-27T06:29:52.579Z,1013.57
2023-04-27T06:30:52.561Z,1013.51
2023-04-27T06:31:52.621Z,1013.58
2023-04-27T06:32:52.669Z,1013.56
2023-04-27T06:33:52.536Z,1013.59
2023-04-27T06:34:52.538Z,1013.63
2023-04-27T06:35:52.509Z,1013.64
2023-04-27T06:36:52.492Z,1013.65
2023-04-27T06:37:52.790Z,1013.65
2023-04-27T06:38:52.466Z,1013.69
2023-04-27T06:39:52.465Z,1013.72
2023-04-27T06:40:52.479Z,1013.66
2023-04-27T06:41:52.467Z,1013.62
2023-04-27T06:42:52.443Z,1013.61
2023-04-27T06:43:53.367Z,1013.62
2023-04-27T06:44:52.461Z,1013.58
2023-04-27T06:45:52.403Z,1013.60
2023-04-27T06:46:52.382Z,1013.58
2023-04-27T06:47:52.484Z,1013.62
2023-04-27T06:48:52.357Z,1013.59
2023-04-27T06:49:52.375Z,1013.61
2023-04-27T06:50:52.363Z,1013.62
2023-04-27T06:51:52.530Z,1013.64
2023-04-27T06:52:52.315Z,1013.61
2023-04-27T06:53:53.100Z,1013.60
2023-04-27T06:54:52.307Z,1013.58
2023-04-27T06:55:52.301Z,1013.58
2023-04-27T06:56:52.314Z,1013.59
2023-04-27T06:57:52.269Z,1013.55
2023-04-27T06:58:52.250Z,1013.54
2023-04-27T06:59:52.256Z,1013.55
2023-04-27T07:00:52.265Z,1013.52
2023-04-27T07:01:52.434Z,1013.55
2023-04-27T07:02:52.310Z,1013.52
2023-04-27T07:03:52.294Z,1013.52
2023-04-27T07:04:52.531Z,1013.49
2023-04-27T07:05:52.175Z,1013.48
2023-04-27T07:06:52.169Z,1013.46
2023-04-27T07:07:52.166Z,1013.48
2023-04-27T07:08:52.148Z,1013.44
2023-04-27T07:09:52.136Z,1013.49
2023-04-27T07:10:52.124Z,1013.52
2023-04-27T07:11:52.107Z,1013.49
2023-04-27T07:12:52.101Z,1013.49
2023-04-27T07:13:52.158Z,1013.46
2023-04-27T07:14:52.099Z,1013.48
2023-04-27T07:15:52.078Z,1013.46
2023-04-27T07:16:52.067Z,1013.52
2023-04-27T07:17:52.133Z,1013.51
2023-04-27T07:18:52.038Z,1013.53
2023-04-27T07:19:52.041Z,1013.51
2023-04-27T07:20:52.018Z,1013.52
2023-04-27T07:21:52.036Z,1013.44
2023-04-27T07:22:52.039Z,1013.48
2023-04-27T07:23:53.462Z,1013.42
2023-04-27T07:24:51.988Z,1013.46
2023-04-27T07:25:52.087Z,1013.44
2023-04-27T07:26:51.984Z,1013.44
2023-04-27T07:27:51.938Z,1013.43
2023-04-27T07:28:51.929Z,1013.42
2023-04-27T07:29:52.099Z,1013.44
2023-04-27T07:30:51.922Z,1013.47
2023-04-27T07:31:52.293Z,1013.44
2023-04-27T07:32:51.936Z,1013.50
2023-04-27T07:33:51.877Z,1013.45
2023-04-27T07:34:54.207Z,1013.41
2023-04-27T07:35:51.870Z,1013.44
2023-04-27T07:36:51.836Z,1013.40
2023-04-27T07:37:51.829Z,1013.41
2023-04-27T07:38:51.825Z,1013.39
2023-04-27T07:39:51.814Z,1013.42
2023-04-27T07:40:51.796Z,1013.39
2023-04-27T07:41:51.787Z,1013.42
2023-04-27T07:42:51.781Z,1013.52
2023-04-27T07:43:51.757Z,1013.48
2023-04-27T07:44:51.802Z,1013.47
2023-04-27T07:45:51.767Z,1013.46
2023-04-27T07:46:51.732Z,1013.46
2023-04-27T07:47:51.729Z,1013.46
2023-04-27T07:48:51.711Z,1013.41
2023-04-27T07:49:51.731Z,1013.43
2023-04-27T07:50:51.682Z,1013.44
2023-04-27T07:51:51.705Z,1013.45
2023-04-27T07:52:51.669Z,1013.41
2023-04-27T07:53:51.659Z,1013.35
2023-04-27T07:54:51.652Z,1013.35
2023-04-27T07:55:51.635Z,1013.29
2023-04-27T07:56:51.623Z,1013.33
2023-04-27T07:57:51.655Z,1013.28
2023-04-27T07:58:51.600Z,1013.24
2023-04-27T07:59:51.656Z,1013.31
2023-04-27T08:00:51.586Z,1013.36
2023-04-27T08:01:51.600Z,1013.32
2023-04-27T08:02:51.764Z,1013.30
2023-04-27T08:03:51.780Z,1013.29
2023-04-27T08:04:51.910Z,1013.30
2023-04-27T08:05:51.785Z,1013.26
2023-04-27T08:06:51.919Z,1013.24
2023-04-27T08:07:52.155Z,1013.29
2023-04-27T08:08:51.496Z,1013.28
2023-04-27T08:09:51.513Z,1013.22
2023-04-27T08:10:51.480Z,1013.19
2023-04-27T08:11:51.466Z,1013.20
2023-04-27T08:12:51.586Z,1013.18
2023-04-27T08:13:51.546Z,1013.21
2023-04-27T08:14:51.460Z,1013.17
2023-04-27T08:15:51.408Z,1013.17
2023-04-27T08:16:51.433Z,1013.12
2023-04-27T08:17:51.414Z,1013.11
2023-04-27T08:18:51.386Z,1013.08
2023-04-27T08:19:51.394Z,1013.12
2023-04-27T08:20:51.362Z,1013.10
2023-04-27T08:21:51.610Z,1013.04
2023-04-27T08:22:51.395Z,1013.08
2023-04-27T08:23:51.334Z,1013.01
2023-04-27T08:24:51.336Z,1013.05
2023-04-27T08:25:51.377Z,1013.07
2023-04-27T08:26:51.331Z,1013.03
2023-04-27T08:27:51.283Z,1013.07
2023-04-27T08:28:51.358Z,1013.06
2023-04-27T08:29:51.294Z,1013.02
2023-04-27T08:30:51.283Z,1013.01
2023-04-27T08:31:51.320Z,1013.00
2023-04-27T08:32:51.311Z,1012.97
2023-04-27T08:33:51.220Z,1012.97
2023-04-27T08:34:51.283Z,1012.98
2023-04-27T08:35:51.243Z,1012.97
2023-04-27T08:36:51.215Z,1012.92
2023-04-27T08:37:51.208Z,1012.91
2023-04-27T08:38:51.168Z,1012.91
2023-04-27T08:39:51.225Z,1012.88
2023-04-27T08:40:51.156Z,1012.90
2023-04-27T08:41:51.137Z,1012.89
2023-04-27T08:42:51.128Z,1012.86
2023-04-27T08:43:51.130Z,1012.86
2023-04-27T08:44:51.140Z,1012.88
2023-04-27T08:45:51.232Z,1012.85
2023-04-27T08:46:51.292Z,1012.80
2023-04-27T08:47:51.091Z,1012.81
2023-04-27T08:48:51.068Z,1012.79
2023-04-27T08:49:51.068Z,1012.83
2023-04-27T08:50:51.047Z,1012.84
2023-04-27T08:51:51.101Z,1012.81
2023-04-27T08:52:51.046Z,1012.76
2023-04-27T08:53:51.014Z,1012.77
2023-04-27T08:54:51.010Z,1012.80
2023-04-27T08:55:50.998Z,1012.85
2023-04-27T08:56:51.027Z,1012.86
2023-04-27T08:57:50.963Z,1012.85
2023-04-27T08:58:50.968Z,1012.88
2023-04-27T08:59:51.020Z,1012.83
2023-04-27T09:00:52.508Z,1012.83
2023-04-27T09:01:50.987Z,1012.83
2023-04-27T09:02:51.103Z,1012.78
2023-04-27T09:03:51.106Z,1012.74
2023-04-27T09:04:51.123Z,1012.72
2023-04-27T09:06:03.848Z,1012.71
2023-04-27T09:06:51.906Z,1012.75
2023-04-27T09:07:50.877Z,1012.79
2023-04-27T09:08:50.861Z,1012.81
2023-04-27T09:09:50.866Z,1012.77
2023-04-27T09:10:50.854Z,1012.78
2023-04-27T09:11:50.851Z,1012.79
2023-04-27T09:12:50.824Z,1012.79
2023-04-27T09:13:50.803Z,1012.75
2023-04-27T09:14:50.866Z,1012.80
2023-04-27T09:15:50.861Z,1012.81
2023-04-27T09:16:50.892Z,1012.80
2023-04-27T09:17:50.801Z,1012.76
2023-04-27T09:18:50.756Z,1012.77
2023-04-27T09:19:50.813Z,1012.70
2023-04-27T09:20:50.792Z,1012.67
2023-04-27T09:21:50.777Z,1012.66
2023-04-27T09:22:50.725Z,1012.68
2023-04-27T09:23:50.703Z,1012.68
2023-04-27T09:24:50.886Z,1012.69
2023-04-27T09:25:50.725Z,1012.67
2023-04-27T09:26:50.787Z,1012.75
2023-04-27T09:27:50.656Z,1012.76
2023-04-27T09:28:50.653Z,1012.78
2023-04-27T09:29:50.657Z,1012.74
2023-04-27T09:30:50.676Z,1012.73
2023-04-27T09:31:50.635Z,1012.75
2023-04-27T09:32:50.655Z,1012.77
2023-04-27T09:33:50.590Z,1012.78
2023-04-27T09:34:50.622Z,1012.69
2023-04-27T09:35:50.582Z,1012.69
2023-04-27T09:36:50.579Z,1012.63
2023-04-27T09:37:50.559Z,1012.63
2023-04-27T09:38:50.563Z,1012.64
2023-04-27T09:39:50.568Z,1012.65
2023-04-27T09:40:50.612Z,1012.63
2023-04-27T09:41:50.580Z,1012.63
2023-04-27T09:42:50.517Z,1012.61
2023-04-27T09:43:50.571Z,1012.56
2023-04-27T09:44:50.492Z,1012.59
2023-04-27T09:45:50.521Z,1012.58
2023-04-27T09:46:50.543Z,1012.60
2023-04-27T09:47:50.499Z,1012.62
2023-04-27T09:48:50.471Z,1012.57
2023-04-27T09:49:50.447Z,1012.55
2023-04-27T09:50:50.428Z,1012.45
2023-04-27T09:51:50.412Z,1012.49
2023-04-27T09:52:50.445Z,1012.51
2023-04-27T09:53:50.397Z,1012.52
2023-04-27T09:54:50.572Z,1012.58
2023-04-27T09:55:51.624Z,1012.54
2023-04-27T09:56:50.446Z,1012.51
2023-04-27T09:57:50.424Z,1012.50
2023-04-27T09:58:50.335Z,1012.42
2023-04-27T09:59:50.429Z,1012.39
2023-04-27T10:00:50.355Z,1012.37
2023-04-27T10:01:50.396Z,1012.41
2023-04-27T10:02:53.635Z,1012.41
2023-04-27T10:03:50.498Z,1012.41
2023-04-27T10:04:50.324Z,1012.38
2023-04-27T10:05:50.272Z,1012.32
2023-04-27T10:06:50.262Z,1012.37
2023-04-27T10:07:50.250Z,1012.34
2023-04-27T10:08:50.265Z,1012.33
2023-04-27T10:09:50.257Z,1012.33
2023-04-27T10:10:50.272Z,1012.33
2023-04-27T10:11:50.308Z,1012.34
2023-04-27T10:12:50.274Z,1012.26
2023-04-27T10:13:51.334Z,1012.29
2023-04-27T10:14:50.192Z,1012.25
2023-04-27T10:15:50.189Z,1012.30
2023-04-27T10:16:50.178Z,1012.25
2023-04-27T10:17:50.259Z,1012.21
2023-04-27T10:18:50.128Z,1012.23
2023-04-27T10:19:51.541Z,1012.17
2023-04-27T10:20:50.132Z,1012.19
2023-04-27T10:21:50.128Z,1012.18
2023-04-27T10:22:50.148Z,1012.19
2023-04-27T10:23:50.094Z,1012.21
2023-04-27T10:24:50.073Z,1012.22
2023-04-27T10:25:50.058Z,1012.21
2023-04-27T10:26:50.053Z,1012.15
2023-04-27T10:27:50.044Z,1012.20
2023-04-27T10:28:50.168Z,1012.29
2023-04-27T10:29:50.031Z,1012.22
2023-04-27T10:30:50.318Z,1012.20
2023-04-27T10:31:50.004Z,1012.20
2023-04-27T10:32:50.059Z,1012.15
2023-04-27T10:33:49.981Z,1012.13
2023-04-27T10:34:49.984Z,1012.15
2023-04-27T10:35:49.968Z,1012.09
2023-04-27T10:36:49.948Z,1012.03
2023-04-27T10:37:49.938Z,1012.06
2023-04-27T10:38:50.031Z,1012.05
2023-04-27T10:39:50.830Z,1012.04
2023-04-27T10:40:49.906Z,1012.05
2023-04-27T10:41:49.936Z,1012.03
2023-04-27T10:42:49.914Z,1012.01
2023-04-27T10:43:49.917Z,1011.97
2023-04-27T10:44:49.921Z,1012.02
2023-04-27T10:45:49.930Z,1012.07
2023-04-27T10:46:50.174Z,1012.05
2023-04-27T10:47:49.887Z,1012.00
2023-04-27T10:48:49.821Z,1011.95
2023-04-27T10:49:49.833Z,1011.99
2023-04-27T10:50:49.804Z,1011.95
2023-04-27T10:51:49.816Z,1011.97
2023-04-27T10:52:49.804Z,1011.94
2023-04-27T10:53:49.781Z,1011.88
2023-04-27T10:54:49.778Z,1011.86
2023-04-27T10:55:49.775Z,1011.84
2023-04-27T10:56:49.752Z,1011.88
2023-04-27T10:57:49.741Z,1011.92
2023-04-27T10:58:49.794Z,1011.87
2023-04-27T10:59:49.787Z,1011.90
2023-04-27T11:00:49.742Z,1011.82
2023-04-27T11:01:49.752Z,1011.87
2023-04-27T11:02:49.886Z,1011.85
2023-04-27T11:03:49.735Z,1011.89
2023-04-27T11:04:49.719Z,1011.85
2023-04-27T11:05:49.700Z,1011.80
2023-04-27T11:06:49.661Z,1011.85
2023-04-27T11:07:49.661Z,1011.84
2023-04-27T11:08:49.627Z,1011.85
2023-04-27T11:09:49.612Z,1011.80
2023-04-27T11:10:49.629Z,1011.84
2023-04-27T11:11:49.604Z,1011.78
2023-04-27T11:12:49.581Z,1011.76
2023-04-27T11:13:49.809Z,1011.73
2023-04-27T11:14:49.590Z,1011.81
2023-04-27T11:15:49.592Z,1011.80
2023-04-27T11:16:49.562Z,1011.80
2023-04-27T11:17:49.569Z,1011.76
2023-04-27T11:18:49.560Z,1011.75
2023-04-27T11:19:49.529Z,1011.72
2023-04-27T11:20:49.510Z,1011.68
2023-04-27T11:21:49.489Z,1011.72
2023-04-27T11:22:49.506Z,1011.64
2023-04-27T11:23:49.477Z,1011.70
2023-04-27T11:24:49.547Z,1011.70
2023-04-27T11:25:49.448Z,1011.68
2023-04-27T11:26:49.446Z,1011.69
2023-04-27T11:27:49.432Z,1011.74
2023-04-27T11:28:49.427Z,1011.72
2023-04-27T11:29:49.459Z,1011.67
2023-04-27T11:30:49.421Z,1011.65
2023-04-27T11:31:49.809Z,1011.57
2023-04-27T11:32:49.469Z,1011.54
2023-04-27T11:33:49.375Z,1011.58
2023-04-27T11:34:49.379Z,1011.61
2023-04-27T11:35:49.356Z,1011.65
2023-04-27T11:36:49.350Z,1011.60
2023-04-27T11:37:49.387Z,1011.58
2023-04-27T11:38:49.354Z,1011.54
2023-04-27T11:39:49.323Z,1011.55
2023-04-27T11:40:49.303Z,1011.53
2023-04-27T11:41:49.369Z,1011.50
2023-04-27T11:42:49.288Z,1011.56
2023-04-27T11:43:49.587Z,1011.51
2023-04-27T11:44:49.321Z,1011.49
2023-04-27T11:45:49.246Z,1011.51
2023-04-27T11:46:49.340Z,1011.52
2023-04-27T11:47:49.264Z,1011.56
2023-04-27T11:48:49.245Z,1011.58
2023-04-27T11:49:49.221Z,1011.52
2023-04-27T11:50:49.207Z,1011.51
2023-04-27T11:51:49.188Z,1011.44
2023-04-27T11:52:49.230Z,1011.43
2023-04-27T11:53:49.163Z,1011.40
2023-04-27T11:54:49.170Z,1011.42
2023-04-27T11:55:49.142Z,1011.40
2023-04-27T11:56:49.139Z,1011.40
2023-04-27T11:57:49.133Z,1011.37
2023-04-27T11:58:49.172Z,1011.28
2023-04-27T11:59:49.121Z,1011.36
2023-04-27T12:00:49.102Z,1011.33
2023-04-27T12:01:49.113Z,1011.28
2023-04-27T12:02:49.245Z,1011.31
2023-04-27T12:03:49.293Z,1011.29
2023-04-27T12:04:49.361Z,1011.33
2023-04-27T12:05:49.230Z,1011.25